Diadema, Brazil
Current Conditions -  °F | °C
As of 1:00 AM on Sunday 26 Oct 2014 (Local Time) from SBSP Reporting Station
Haze Haze  
Wind Chill: 68°   Ceiling: Unl
Heat Index: 68°   Visibility: 3mi
Dew Point: 61°   Wind: 3mph
Humidity: 78%   Direction: 50°NE
Pressure: 30.03"   Gusts: NA
Location:  23.69°S, 46.61°W
Report Text: SBSP 260300Z 05003KT 5000 HZ FEW012 SCT080 20/16 Q1017
Loading
Personal Weather Stations






























Interactive Weather Map
Tropical Storm Tracking
New forecast layout! Learn more

10-Day Weather Forecast

Advertisements
Track Severe Weather on mobile